createdAt,value
2022-08-23T00:01:21.230Z,73.19
2022-08-23T00:03:47.892Z,73.62
2022-08-23T00:06:12.870Z,73.26
2022-08-23T00:08:36.905Z,73.65
2022-08-23T00:11:00.843Z,71.18
2022-08-23T00:13:24.723Z,73.85
2022-08-23T00:16:09.879Z,73.01
2022-08-23T00:18:33.492Z,72.87
2022-08-23T00:20:57.201Z,71.76
2022-08-23T00:23:21.209Z,73.58
2022-08-23T00:25:45.428Z,71.74
2022-08-23T00:28:11.442Z,74.85
2022-08-23T00:30:39.098Z,73.83
2022-08-23T00:33:04.159Z,74.44
2022-08-23T00:35:28.653Z,73.00
2022-08-23T00:38:32.322Z,76.54
2022-08-23T00:40:36.045Z,75.42
2022-08-23T00:43:26.112Z,75.49
2022-08-23T00:46:16.547Z,73.01
2022-08-23T00:48:42.355Z,74.31
2022-08-23T00:51:12.892Z,72.11
2022-08-23T00:53:42.172Z,74.47
2022-08-23T00:56:12.214Z,71.68
2022-08-23T00:58:37.543Z,72.87
2022-08-23T01:01:04.472Z,71.97
2022-08-23T01:03:38.821Z,72.35
2022-08-23T01:06:13.068Z,72.34
2022-08-23T01:08:38.387Z,73.49
2022-08-23T01:11:09.643Z,74.05
2022-08-23T01:13:41.047Z,73.69
2022-08-23T01:16:11.553Z,77.44
2022-08-23T01:18:35.714Z,76.49
2022-08-23T01:21:10.767Z,75.06
2022-08-23T01:23:43.239Z,75.92
2022-08-23T01:26:09.079Z,75.39
2022-08-23T01:28:35.092Z,75.73
2022-08-23T01:30:58.873Z,75.81
2022-08-23T01:33:22.879Z,75.18
2022-08-23T01:35:53.527Z,74.20
2022-08-23T01:38:18.163Z,75.57
2022-08-23T01:40:44.927Z,74.72
2022-08-23T01:43:10.111Z,74.21
2022-08-23T01:45:35.127Z,74.56
2022-08-23T01:47:59.257Z,72.95
2022-08-23T01:50:23.704Z,73.15
2022-08-23T01:52:47.594Z,71.87
2022-08-23T01:55:13.858Z,73.06
2022-08-23T01:57:39.079Z,72.01
2022-08-23T02:00:07.875Z,71.98
2022-08-23T02:02:37.432Z,72.33
2022-08-23T02:05:01.319Z,71.20
2022-08-23T02:07:28.905Z,70.88
2022-08-23T02:09:53.265Z,71.02
2022-08-23T02:12:17.583Z,71.22
2022-08-23T02:14:43.723Z,70.71
2022-08-23T02:17:16.171Z,69.97
2022-08-23T02:19:41.216Z,70.48
2022-08-23T02:22:07.471Z,69.56
2022-08-23T02:24:32.235Z,69.79
2022-08-23T02:26:59.506Z,70.18
2022-08-23T02:29:29.726Z,70.11
2022-08-23T02:31:55.683Z,70.88
2022-08-23T02:34:20.694Z,70.73
2022-08-23T02:36:46.096Z,70.40
2022-08-23T02:39:10.931Z,69.88
2022-08-23T02:41:36.178Z,70.18
2022-08-23T02:44:00.468Z,69.56
2022-08-23T02:46:24.920Z,70.78
2022-08-23T02:48:51.047Z,69.80
2022-08-23T02:51:14.745Z,70.39
2022-08-23T02:53:39.303Z,71.66
2022-08-23T02:56:12.951Z,71.73
2022-08-23T02:58:46.586Z,73.13
2022-08-23T03:01:19.270Z,72.84
2022-08-23T03:03:43.507Z,72.67
2022-08-23T03:06:25.487Z,71.38
2022-08-23T03:08:49.916Z,74.07
2022-08-23T03:11:15.684Z,72.47
2022-08-23T03:13:41.637Z,74.95
2022-08-23T03:16:06.125Z,74.18
2022-08-23T03:18:30.030Z,73.84
2022-08-23T03:20:56.623Z,73.02
2022-08-23T03:23:21.930Z,74.21
2022-08-23T03:25:45.975Z,74.25
2022-08-23T03:28:21.483Z,74.38
2022-08-23T03:30:45.634Z,72.89
2022-08-23T03:33:10.314Z,74.39
2022-08-23T03:35:34.309Z,73.63
2022-08-23T03:38:00.695Z,72.89
2022-08-23T03:40:26.671Z,73.50
2022-08-23T03:42:50.691Z,73.89
2022-08-23T03:45:16.598Z,73.87
2022-08-23T03:47:41.024Z,73.35
2022-08-23T03:50:05.689Z,73.39
2022-08-23T03:52:30.527Z,76.88
2022-08-23T03:54:55.124Z,75.24
2022-08-23T03:57:20.327Z,73.86
2022-08-23T03:59:44.159Z,73.92
2022-08-23T04:02:09.115Z,78.80
2022-08-23T04:04:33.511Z,78.42
2022-08-23T04:07:20.795Z,78.21
2022-08-23T04:09:50.913Z,80.35
2022-08-23T04:12:20.450Z,77.50
2022-08-23T04:14:45.578Z,78.71
2022-08-23T04:17:10.473Z,77.84
2022-08-23T04:19:34.380Z,77.50
2022-08-23T04:22:00.976Z,78.11
2022-08-23T04:24:31.747Z,77.57
2022-08-23T04:26:55.576Z,77.38
2022-08-23T04:29:31.446Z,76.68
2022-08-23T04:31:58.255Z,77.17
2022-08-23T04:34:22.060Z,76.45
2022-08-23T04:36:55.218Z,77.65
2022-08-23T04:39:19.476Z,76.02
2022-08-23T04:42:01.276Z,76.42
2022-08-23T04:44:26.543Z,76.49
2022-08-23T04:46:51.008Z,76.81
2022-08-23T04:49:14.788Z,76.83
2022-08-23T04:51:38.627Z,77.51
2022-08-23T04:54:03.158Z,77.37
2022-08-23T04:56:45.592Z,78.51
2022-08-23T04:59:16.791Z,77.53
2022-08-23T05:01:44.243Z,77.60
2022-08-23T05:04:10.775Z,78.11
2022-08-23T05:06:36.391Z,78.53
2022-08-23T05:09:02.312Z,78.78
2022-08-23T05:11:28.111Z,78.78
2022-08-23T05:13:52.186Z,78.03
2022-08-23T05:16:17.883Z,77.54
2022-08-23T05:18:54.313Z,76.44
2022-08-23T05:21:20.251Z,75.99
2022-08-23T05:23:44.557Z,76.85
2022-08-23T05:26:17.272Z,76.32
2022-08-23T05:28:44.580Z,76.95
2022-08-23T05:31:13.069Z,78.17
2022-08-23T05:33:42.841Z,78.36
2022-08-23T05:36:10.419Z,78.05
2022-08-23T05:38:35.104Z,79.24
2022-08-23T05:41:02.136Z,78.10
2022-08-23T05:43:30.706Z,78.39
2022-08-23T05:46:03.729Z,78.99
2022-08-23T05:48:30.293Z,78.41
2022-08-23T05:50:57.675Z,79.67
2022-08-23T05:53:22.800Z,77.37
2022-08-23T05:55:46.882Z,77.06
2022-08-23T05:58:15.230Z,77.90
2022-08-23T06:00:40.722Z,77.50
2022-08-23T06:03:06.083Z,77.16
2022-08-23T06:05:30.785Z,78.46
2022-08-23T06:07:56.255Z,78.49
2022-08-23T06:10:22.946Z,78.10
2022-08-23T06:12:55.547Z,78.48
2022-08-23T06:15:19.543Z,77.75
2022-08-23T06:17:43.295Z,78.62
2022-08-23T06:20:08.739Z,77.57
2022-08-23T06:22:53.386Z,77.10
2022-08-23T06:25:17.247Z,76.83
2022-08-23T06:27:50.315Z,77.02
2022-08-23T06:30:15.141Z,76.75
2022-08-23T06:32:38.819Z,76.03
2022-08-23T06:35:41.651Z,76.67
2022-08-23T06:38:15.099Z,76.27
2022-08-23T06:41:02.790Z,75.89
2022-08-23T06:43:39.252Z,75.94
2022-08-23T06:46:20.077Z,77.45
2022-08-23T06:48:48.699Z,76.13
2022-08-23T06:51:15.207Z,75.54
2022-08-23T06:53:55.029Z,76.12
2022-08-23T06:56:40.007Z,76.28
2022-08-23T06:59:12.256Z,76.49
2022-08-23T07:01:57.753Z,75.37
2022-08-23T07:04:30.183Z,76.34
2022-08-23T07:07:10.749Z,77.07
2022-08-23T07:09:35.485Z,77.04
2022-08-23T07:12:00.788Z,74.83
2022-08-23T07:14:26.914Z,75.21
2022-08-23T07:16:56.185Z,75.84
2022-08-23T07:19:22.839Z,74.68
2022-08-23T07:21:53.164Z,74.55
2022-08-23T07:24:18.722Z,74.06
2022-08-23T07:26:44.527Z,74.17
2022-08-23T07:29:11.467Z,73.31
2022-08-23T07:31:43.979Z,73.59
2022-08-23T07:34:10.385Z,73.93
2022-08-23T07:36:37.684Z,72.29
2022-08-23T07:39:02.137Z,71.96
2022-08-23T07:41:32.909Z,72.15
2022-08-23T07:43:58.233Z,72.38
2022-08-23T07:46:22.014Z,71.99
2022-08-23T07:48:54.213Z,72.68
2022-08-23T07:51:26.757Z,71.42
2022-08-23T07:53:50.521Z,71.60
2022-08-23T07:56:18.687Z,72.03
2022-08-23T07:59:01.486Z,72.25
2022-08-23T08:01:35.304Z,69.65
2022-08-23T08:04:03.627Z,69.04
2022-08-23T08:06:33.988Z,70.04
2022-08-23T08:08:58.738Z,68.85
2022-08-23T08:11:29.705Z,70.25
2022-08-23T08:13:59.052Z,68.80
2022-08-23T08:16:27.969Z,69.05
2022-08-23T08:18:53.248Z,66.32
2022-08-23T08:21:51.357Z,66.33
2022-08-23T08:24:41.416Z,65.54
2022-08-23T08:27:09.397Z,65.84
2022-08-23T08:29:33.520Z,66.74
2022-08-23T08:31:57.573Z,66.34
2022-08-23T08:34:21.451Z,64.96
2022-08-23T08:36:50.217Z,64.42
2022-08-23T08:39:19.864Z,65.04
2022-08-23T08:42:04.619Z,64.73
2022-08-23T08:44:40.087Z,64.05
2022-08-23T08:47:11.923Z,64.57
2022-08-23T08:49:43.436Z,63.89
2022-08-23T08:52:18.670Z,63.39
2022-08-23T08:54:48.037Z,61.92
2022-08-23T08:57:15.718Z,61.96
2022-08-23T08:59:52.251Z,60.94
2022-08-23T09:02:31.883Z,60.78
2022-08-23T09:05:02.646Z,59.62
2022-08-23T09:07:50.968Z,62.20
2022-08-23T09:10:33.683Z,59.74
2022-08-23T09:13:37.244Z,58.42
2022-08-23T09:16:13.354Z,58.23
2022-08-23T09:18:38.468Z,59.77
2022-08-23T09:21:02.993Z,57.59
2022-08-23T09:23:38.325Z,56.84
2022-08-23T09:26:19.370Z,55.78
2022-08-23T09:28:43.539Z,55.08
2022-08-23T09:31:08.462Z,54.71
2022-08-23T09:33:42.032Z,55.39
2022-08-23T09:36:23.939Z,54.12
2022-08-23T09:38:56.607Z,55.01
2022-08-23T09:41:27.760Z,55.53
2022-08-23T09:43:55.729Z,55.27
2022-08-23T09:46:28.271Z,53.71
2022-08-23T09:48:55.229Z,52.61
2022-08-23T09:51:30.328Z,52.32
2022-08-23T09:54:09.447Z,52.32
2022-08-23T09:56:38.809Z,51.61
2022-08-23T09:59:04.388Z,51.01
2022-08-23T10:01:40.142Z,52.71
2022-08-23T10:04:14.810Z,49.47
2022-08-23T10:06:41.039Z,50.71
2022-08-23T10:09:10.130Z,49.56
2022-08-23T10:11:42.673Z,49.93
2022-08-23T10:14:08.440Z,48.93
2022-08-23T10:16:43.768Z,49.35
2022-08-23T10:19:21.205Z,50.87
2022-08-23T10:21:57.440Z,49.36
2022-08-23T10:24:34.614Z,48.27
2022-08-23T10:27:40.051Z,49.73
2022-08-23T10:30:10.310Z,45.02
2022-08-23T10:32:53.630Z,45.04
2022-08-23T10:35:37.091Z,48.06
2022-08-23T10:38:42.145Z,45.60
2022-08-23T10:41:40.056Z,48.14
2022-08-23T10:44:24.835Z,47.63
2022-08-23T10:47:08.867Z,48.85
2022-08-23T10:49:37.819Z,49.07
2022-08-23T10:52:05.238Z,46.71
2022-08-23T10:54:46.043Z,46.41
2022-08-23T10:57:20.755Z,47.02
2022-08-23T10:59:47.021Z,46.48
2022-08-23T11:02:23.949Z,47.86
2022-08-23T11:05:06.994Z,46.46
2022-08-23T11:07:35.338Z,47.33
2022-08-23T11:10:17.423Z,45.82
2022-08-23T11:12:58.996Z,46.39
2022-08-23T11:15:34.262Z,45.94
2022-08-23T11:18:04.196Z,44.38
2022-08-23T11:21:34.148Z,43.46
2022-08-23T11:24:39.025Z,43.98
2022-08-23T11:27:07.692Z,44.53
2022-08-23T11:29:43.416Z,45.97
2022-08-23T11:32:40.243Z,45.29
2022-08-23T11:35:32.966Z,45.26
2022-08-23T11:38:04.317Z,44.24
2022-08-23T11:41:22.747Z,41.75
2022-08-23T11:43:49.666Z,40.63
2022-08-23T11:46:36.089Z,41.23
2022-08-23T11:49:55.682Z,40.75
2022-08-23T11:52:51.183Z,42.04
2022-08-23T11:55:52.802Z,43.59
2022-08-23T11:58:25.063Z,40.85
2022-08-23T12:01:07.642Z,42.66
2022-08-23T12:03:37.126Z,40.86
2022-08-23T12:06:16.740Z,41.71
2022-08-23T12:08:53.804Z,40.48
2022-08-23T12:11:20.215Z,41.39
2022-08-23T12:13:55.549Z,39.37
2022-08-23T12:16:44.322Z,39.32
2022-08-23T12:19:30.509Z,38.72
2022-08-23T12:21:57.905Z,42.10
2022-08-23T12:24:27.805Z,41.53
2022-08-23T12:27:04.781Z,39.30
2022-08-23T12:30:00.008Z,40.16
2022-08-23T12:32:36.559Z,39.28
2022-08-23T12:35:20.086Z,39.28
2022-08-23T12:37:52.232Z,39.99
2022-08-23T12:40:23.996Z,41.40
2022-08-23T12:42:48.120Z,40.83
2022-08-23T12:45:19.446Z,40.19
2022-08-23T12:47:45.444Z,40.24
2022-08-23T12:50:32.953Z,40.42
2022-08-23T12:53:01.271Z,40.57
2022-08-23T12:55:25.221Z,40.67
2022-08-23T12:57:56.531Z,40.13
2022-08-23T13:00:25.491Z,39.83
2022-08-23T13:02:56.893Z,39.37
2022-08-23T13:05:33.943Z,39.73
2022-08-23T13:07:59.540Z,38.34
2022-08-23T13:10:23.644Z,39.63
2022-08-23T13:12:47.523Z,40.42
2022-08-23T13:15:14.215Z,40.09
2022-08-23T13:17:41.071Z,40.28
2022-08-23T13:20:24.422Z,38.55
2022-08-23T13:23:04.110Z,40.78
2022-08-23T13:25:32.705Z,40.75
2022-08-23T13:27:59.606Z,41.77
2022-08-23T13:30:26.667Z,43.53
2022-08-23T13:32:52.151Z,43.77
2022-08-23T13:35:36.629Z,43.50
2022-08-23T13:38:10.834Z,44.74
2022-08-23T13:40:43.778Z,42.95
2022-08-23T13:43:11.867Z,41.30
2022-08-23T13:45:38.084Z,40.99
2022-08-23T13:48:08.883Z,40.94
2022-08-23T13:50:36.783Z,41.08
2022-08-23T13:53:14.386Z,40.33
2022-08-23T13:55:46.219Z,42.14
2022-08-23T13:58:13.397Z,40.92
2022-08-23T14:00:37.876Z,40.05
2022-08-23T14:03:01.700Z,41.00
2022-08-23T14:05:25.546Z,41.19
2022-08-23T14:07:53.004Z,39.30
2022-08-23T14:10:18.313Z,41.36
2022-08-23T14:12:44.958Z,40.37
2022-08-23T14:15:10.110Z,40.07
2022-08-23T14:17:41.709Z,41.05
2022-08-23T14:22:52.960Z,40.97
2022-08-23T14:25:16.896Z,40.20
2022-08-23T14:27:42.567Z,40.65
2022-08-23T14:30:08.495Z,40.07
2022-08-23T14:32:32.398Z,41.45
2022-08-23T14:34:56.075Z,41.62
2022-08-23T14:38:00.439Z,43.15
2022-08-23T14:40:06.898Z,43.19
2022-08-23T14:42:31.830Z,44.03
2022-08-23T14:44:55.531Z,43.13
2022-08-23T14:47:19.515Z,44.76
2022-08-23T14:49:43.323Z,43.32
2022-08-23T14:52:07.323Z,43.04
2022-08-23T14:54:31.928Z,43.06
2022-08-23T14:56:57.080Z,42.62
2022-08-23T14:59:20.880Z,42.35
2022-08-23T15:01:45.148Z,44.38
2022-08-23T15:04:10.043Z,41.78
2022-08-23T15:06:33.792Z,42.15
2022-08-23T15:08:57.567Z,42.41
2022-08-23T15:14:06.903Z,40.71
2022-08-23T15:16:30.955Z,41.45
2022-08-23T15:18:55.015Z,40.94
2022-08-23T15:21:19.511Z,40.54
2022-08-23T15:23:43.400Z,42.62
2022-08-23T15:26:08.199Z,43.49
2022-08-23T15:28:32.209Z,42.39
2022-08-23T15:30:58.059Z,40.29
2022-08-23T15:33:27.164Z,40.71
2022-08-23T15:35:55.548Z,41.40
2022-08-23T15:38:20.598Z,40.51
2022-08-23T15:40:45.215Z,43.76
2022-08-23T15:43:08.924Z,44.09
2022-08-23T15:45:33.859Z,45.08
2022-08-23T15:48:01.243Z,45.46
2022-08-23T15:50:31.061Z,45.70
2022-08-23T15:52:55.244Z,44.88
2022-08-23T15:55:19.756Z,44.35
2022-08-23T15:57:46.839Z,44.66
2022-08-23T16:00:13.005Z,44.80
2022-08-23T16:02:57.347Z,44.08
2022-08-23T16:05:22.243Z,43.96
2022-08-23T16:07:46.423Z,43.72
2022-08-23T16:10:13.003Z,44.18
2022-08-23T16:12:36.723Z,44.28
2022-08-23T16:15:00.443Z,44.36
2022-08-23T16:17:24.275Z,43.82
2022-08-23T16:19:48.964Z,44.35
2022-08-23T16:22:14.790Z,43.83
2022-08-23T16:24:38.531Z,46.35
2022-08-23T16:27:02.183Z,47.47
2022-08-23T16:29:27.346Z,46.95
2022-08-23T16:31:51.915Z,46.53
2022-08-23T16:34:18.415Z,46.52
2022-08-23T16:36:45.562Z,46.57
2022-08-23T16:39:12.831Z,47.37
2022-08-23T16:41:36.776Z,47.20
2022-08-23T16:44:00.727Z,47.91
2022-08-23T16:46:25.845Z,47.41
2022-08-23T16:48:49.940Z,48.24
2022-08-23T16:51:14.138Z,49.17
2022-08-23T16:53:38.508Z,47.97
2022-08-23T16:56:03.699Z,46.33
2022-08-23T16:58:27.512Z,45.87
2022-08-23T17:00:51.553Z,45.84
2022-08-23T17:03:15.610Z,46.35
2022-08-23T17:05:39.350Z,45.68
2022-08-23T17:08:03.472Z,45.10
2022-08-23T17:10:27.524Z,44.62
2022-08-23T17:12:55.584Z,45.40
2022-08-23T17:15:25.075Z,45.89
2022-08-23T17:17:49.104Z,47.05
2022-08-23T17:20:14.638Z,49.63
2022-08-23T17:22:38.640Z,54.39
2022-08-23T17:25:02.276Z,52.87
2022-08-23T17:27:26.231Z,52.31
2022-08-23T17:29:51.667Z,51.02
2022-08-23T17:32:18.451Z,51.43
2022-08-23T17:34:42.082Z,51.54
2022-08-23T17:37:06.431Z,51.88
2022-08-23T17:39:32.273Z,52.93
2022-08-23T17:41:59.638Z,52.06
2022-08-23T17:44:23.697Z,53.74
2022-08-23T17:46:49.243Z,53.44
2022-08-23T17:49:14.246Z,53.66
2022-08-23T17:51:41.051Z,53.84
2022-08-23T17:54:05.023Z,54.63
2022-08-23T17:56:29.079Z,54.08
2022-08-23T17:58:53.010Z,57.21
2022-08-23T18:01:16.826Z,54.00
2022-08-23T18:03:42.501Z,55.52
2022-08-23T18:06:16.835Z,55.65
2022-08-23T18:08:41.139Z,55.05
2022-08-23T18:11:05.023Z,55.50
2022-08-23T18:13:28.762Z,55.71
2022-08-23T18:15:52.664Z,56.65
2022-08-23T18:18:16.472Z,57.15
2022-08-23T18:20:41.544Z,56.67
2022-08-23T18:23:06.011Z,56.22
2022-08-23T18:25:30.111Z,56.53
2022-08-23T18:28:08.537Z,57.97
2022-08-23T18:30:32.442Z,58.11
2022-08-23T18:32:56.396Z,58.77
2022-08-23T18:35:20.239Z,58.88
2022-08-23T18:37:46.108Z,58.19
2022-08-23T18:40:11.896Z,58.77
2022-08-23T18:42:36.038Z,59.57
2022-08-23T18:44:59.747Z,60.35
2022-08-23T18:47:23.356Z,59.85
2022-08-23T18:49:47.014Z,60.18
2022-08-23T18:52:10.782Z,60.59
2022-08-23T18:54:36.546Z,60.88
2022-08-23T18:57:00.655Z,61.24
2022-08-23T18:59:24.520Z,62.08
2022-08-23T19:01:48.532Z,61.80
2022-08-23T19:04:14.416Z,62.16
2022-08-23T19:06:38.833Z,62.68
2022-08-23T19:09:02.564Z,62.55
2022-08-23T19:11:28.234Z,62.58
2022-08-23T19:13:52.217Z,63.66
2022-08-23T19:16:17.125Z,63.72
2022-08-23T19:18:41.211Z,63.63
2022-08-23T19:21:06.475Z,64.26
2022-08-23T19:23:30.211Z,64.27
2022-08-23T19:25:53.907Z,64.58
2022-08-23T19:28:19.991Z,64.87
2022-08-23T19:30:44.267Z,65.10
2022-08-23T19:33:08.131Z,64.98
2022-08-23T19:35:32.108Z,65.09
2022-08-23T19:37:55.855Z,65.69
2022-08-23T19:40:20.373Z,65.56
2022-08-23T19:42:44.160Z,65.63
2022-08-23T19:45:10.981Z,66.48
2022-08-23T19:47:35.035Z,67.93
2022-08-23T19:49:59.912Z,66.90
2022-08-23T19:52:23.627Z,67.53
2022-08-23T19:54:47.667Z,68.92
2022-08-23T19:57:11.379Z,69.00
2022-08-23T19:59:40.278Z,67.70
2022-08-23T20:02:05.795Z,67.83
2022-08-23T20:04:32.261Z,68.00
2022-08-23T20:06:57.631Z,68.21
2022-08-23T20:09:23.416Z,68.50
2022-08-23T20:11:47.409Z,68.99
2022-08-23T20:14:11.688Z,69.13
2022-08-23T20:16:36.652Z,69.11
2022-08-23T20:19:04.039Z,69.09
2022-08-23T20:21:28.586Z,69.05
2022-08-23T20:24:04.173Z,70.15
2022-08-23T20:26:29.099Z,69.81
2022-08-23T20:28:59.670Z,69.82
2022-08-23T20:31:28.201Z,70.38
2022-08-23T20:33:53.137Z,70.16
2022-08-23T20:36:20.356Z,69.80
2022-08-23T20:38:44.114Z,69.79
2022-08-23T20:41:08.504Z,70.04
2022-08-23T20:43:32.811Z,70.54
2022-08-23T20:45:57.451Z,70.78
2022-08-23T20:48:21.414Z,70.76
2022-08-23T20:50:45.155Z,70.78
2022-08-23T20:53:12.819Z,71.32
2022-08-23T20:55:36.544Z,72.37
2022-08-23T20:58:00.841Z,71.49
2022-08-23T21:00:24.683Z,71.69
2022-08-23T21:02:48.529Z,71.70
2022-08-23T21:05:12.398Z,71.37
2022-08-23T21:07:36.837Z,71.63
2022-08-23T21:10:02.188Z,72.69
2022-08-23T21:12:26.001Z,72.89
2022-08-23T21:14:50.595Z,72.70
2022-08-23T21:17:14.412Z,72.93
2022-08-23T21:19:38.257Z,72.87
2022-08-23T21:22:02.019Z,73.91
2022-08-23T21:24:26.307Z,73.65
2022-08-23T21:26:52.032Z,73.55
2022-08-23T21:29:15.958Z,74.53
2022-08-23T21:31:40.614Z,75.03
2022-08-23T21:34:04.570Z,73.86
2022-08-23T21:36:29.146Z,73.72
2022-08-23T21:38:52.870Z,74.13
2022-08-23T21:41:34.980Z,74.72
2022-08-23T21:44:00.131Z,75.13
2022-08-23T21:46:24.517Z,74.49
2022-08-23T21:48:48.259Z,74.92
2022-08-23T21:51:11.862Z,75.96
2022-08-23T21:53:35.559Z,75.26
2022-08-23T21:55:59.126Z,74.91
2022-08-23T21:58:22.919Z,75.63
2022-08-23T22:00:47.978Z,75.67
2022-08-23T22:03:12.034Z,75.78
2022-08-23T22:05:40.875Z,75.34
2022-08-23T22:08:05.103Z,74.83
2022-08-23T22:10:28.791Z,75.55
2022-08-23T22:12:52.827Z,75.22
2022-08-23T22:15:17.556Z,75.68
2022-08-23T22:17:42.644Z,75.23
2022-08-23T22:20:08.699Z,75.61
2022-08-23T22:22:33.282Z,76.19
2022-08-23T22:24:57.740Z,75.53
2022-08-23T22:27:22.339Z,76.38
2022-08-23T22:29:46.780Z,75.73
2022-08-23T22:32:10.529Z,76.26
2022-08-23T22:34:35.783Z,76.00
2022-08-23T22:36:59.691Z,76.60
2022-08-23T22:39:25.282Z,76.16
2022-08-23T22:41:48.986Z,77.85
2022-08-23T22:44:12.644Z,79.54
2022-08-23T22:46:37.044Z,78.28
2022-08-23T22:49:01.165Z,77.58
2022-08-23T22:51:28.851Z,76.84
2022-08-23T22:53:56.028Z,76.73
2022-08-23T22:56:22.933Z,77.50
2022-08-23T22:58:47.774Z,78.00
2022-08-23T23:01:20.931Z,80.91
2022-08-23T23:03:44.906Z,82.03
2022-08-23T23:06:08.655Z,79.08
2022-08-23T23:08:33.703Z,78.36
2022-08-23T23:11:00.171Z,79.45
2022-08-23T23:13:25.455Z,78.49
2022-08-23T23:15:50.184Z,78.44
2022-08-23T23:18:13.948Z,77.58
2022-08-23T23:20:40.281Z,80.13
2022-08-23T23:23:03.979Z,77.53
2022-08-23T23:25:29.063Z,78.48
2022-08-23T23:27:55.409Z,77.45
2022-08-23T23:30:22.872Z,78.07
2022-08-23T23:32:46.619Z,77.86
2022-08-23T23:35:11.453Z,78.13
2022-08-23T23:37:35.219Z,78.46
2022-08-23T23:39:59.230Z,78.27
2022-08-23T23:42:24.299Z,78.09
2022-08-23T23:44:48.047Z,78.05
2022-08-23T23:47:11.815Z,79.09
2022-08-23T23:49:35.551Z,79.52
2022-08-23T23:51:59.138Z,79.38
2022-08-23T23:54:22.899Z,81.01
2022-08-23T23:56:48.224Z,79.70
2022-08-23T23:59:13.414Z,78.51
